Aérodrome :
LOGIN :

S'inscrire | Disclaimer

   EN    FR    IT 

 










Légende :    VFR   VFR Marginal   IFR   IFR Intensif   IFR Très Intensif
Visi : 
Plafond : 
>= 8 km
>= 3000ft
5 à 8 km
1000 à 3000 ft
1500m à 5 km
500 à 1000 ft
800 à 1500m
200 à 500 ft
< 800m
< 200 ft
Symboles :   Orages  Brouillard  Fortes neiges  Fortes précipitations  Vent > 20 kt
SIGMETs :   Divers  Orages  Givrage  Turbulence  Onde Orograph.  Cendres Volcan.






- Altitude de l'aérodrome : 151 ft
- Code IATA : PES


ULPB - Petrozavodsk

DERNIER METAR :
  • 090700Z AUTO 24007G12MPS 9999 -SHRA ///028/// 05/01 Q0999 RMK QFE745/0993

METARs EXPIRÉS :
  • 090600Z AUTO 23006MPS 9999 -SHRA ///048/// 06/01 Q0999 RMK QFE745/0993
  • 090500Z AUTO 23007MPS 9999 -SHRA 05/00 Q0999 RMK QFE745/0994

TAF TAF ULPB
Valide du 09 à 06h jusqu'au 09 à 15h UTC


090457Z 0906/0915 25007G12MPS 6000 BKN015
TEMPO 0906/0912 27008G15MPS 3100 -SHRASN BKN010 BKN016CB
TEMPO 0912/0915 30006MPS 4000 -SHRA BKN017CB



MET'MAP, la Météo Aéronautique d'un coup d'oeil ! - Copyright ORBIFLY Décembre 2007 - Disclaimer

ORBIFLY MET'MAP TEAM :

Programmation & Développement : Alexandra Zaïnal
Sur une idée originale de : Baudouin d'Aumeries
Assistance à la programmation : Marc-Olivier Méhu
Soutien technique & logistique : Manuel Goepfert

Contact : metmap@orbifly.com




SOURCES & CREDITS :

   NOAA